ウアリ・ブーメディアン空港の過去48時間の天気

ウアリ・ブーメディアン空港 (Dar-El-Beida)

現在時刻: 5/20 23:43 CET (5/20 22:43 UTC) 以下の時間は現地時間です。

過去48時間のMETAR気象情報
時間 風向 風速(m/s) 視程 気温(℃) 湿度(%) 気圧(hPa) 天気現象
20 23:30 静穏 0 10km以上 13 94 1014
20 23:00 静穏 0 10km以上 13 88 1014
20 22:30 静穏 0 10km以上 14 82 1014
20 22:00 静穏 0 10km以上 15 82 1014
20 21:30 静穏 0 10km以上 17 77 1014
20 21:00 不定 1 10km以上 17 77 1014
20 20:30 北東 2 10km以上 18 68 1014
DAAG 202230Z 00000KT 9999 FEW020 SCT080 13/12 Q1014
DAAG 202200Z 00000KT 9999 FEW020 SCT200 13/11 Q1014
DAAG 202130Z 00000KT 9999 FEW020 SCT200 14/11 Q1014
DAAG 202100Z 00000KT 9999 FEW020 SCT200 15/12 Q1014
DAAG 202030Z 00000KT 9999 FEW020 SCT200 17/13 Q1014
DAAG 202000Z VRB01KT 9999 FEW020 SCT200 17/13 Q1014
DAAG 201930Z 04004KT 010V070 9999 FEW020 SCT200 18/12 Q1014